Time;durP1;ratioP1;P1;durP2;ratioP2;P2;SDS_P1;SDS_P2;PMS_P1;PMS_P2;Temp;Humidity;BMP_temperature;BMP_pressure;BME280_temperature;BME280_humidity;BME280_pressure;Samples;Min_cycle;Max_cycle;Signal;HPM_P1;HPM_P2
2022/04/03 00:01:22;;;;;;;17.58;14.38;;;;;;;26.26;27.44;96542.44;4903045;28;20453;-27
2022/04/03 00:03:47;;;;;;;19.42;14.25;;;;;;;26.26;27.61;96542.44;4927738;28;20036;-28
2022/04/03 00:06:13;;;;;;;19.98;15.45;;;;;;;26.26;27.73;96545.09;4907858;29;20047;-27
2022/04/03 00:08:38;;;;;;;18.75;14.70;;;;;;;26.26;27.73;96545.09;4905209;28;20040;-26
2022/04/03 00:11:04;;;;;;;18.20;14.35;;;;;;;26.26;27.73;96545.09;4907264;29;20031;-27
2022/04/03 00:13:29;;;;;;;17.13;13.65;;;;;;;26.25;27.47;96548.63;4906820;29;20046;-28
2022/04/03 00:15:56;;;;;;;17.38;13.65;;;;;;;26.25;27.47;96548.63;4907779;29;20606;-30
2022/04/03 00:18:21;;;;;;;19.58;13.63;;;;;;;26.25;27.47;96548.63;4907943;29;20066;-28
2022/04/03 00:20:47;;;;;;;19.02;14.07;;;;;;;26.24;27.75;96546.94;4906376;29;20066;-30
2022/04/03 00:23:12;;;;;;;16.10;13.40;;;;;;;26.23;27.76;96548.69;4908239;29;20098;-27
2022/04/03 00:25:38;;;;;;;15.88;13.00;;;;;;;26.23;27.76;96548.69;4905483;29;20039;-27
2022/04/03 00:28:03;;;;;;;16.85;13.00;;;;;;;26.23;27.76;96548.69;4899648;29;20043;-26
2022/04/03 00:30:29;;;;;;;16.13;12.48;;;;;;;26.21;27.66;96549.72;4916936;28;20040;-27
2022/04/03 00:32:54;;;;;;;15.73;12.55;;;;;;;26.22;27.60;96551.41;4907604;29;20024;-27
2022/04/03 00:35:20;;;;;;;16.15;12.32;;;;;;;26.22;27.60;96551.41;4906823;29;20037;-28
2022/04/03 00:37:46;;;;;;;17.67;12.15;;;;;;;26.20;27.48;96548.03;4906714;29;20483;-29
2022/04/03 00:40:12;;;;;;;15.32;12.65;;;;;;;26.20;27.48;96548.03;4906258;28;20032;-29
2022/04/03 00:42:37;;;;;;;16.15;12.25;;;;;;;26.20;27.66;96551.50;4920353;28;20386;-29
2022/04/03 00:45:03;;;;;;;16.70;12.05;;;;;;;26.20;27.66;96551.50;4905087;29;20047;-29
2022/04/03 00:47:29;;;;;;;15.18;12.07;;;;;;;26.20;27.66;96551.50;4906358;29;20036;-28
2022/04/03 00:49:55;;;;;;;13.75;11.75;;;;;;;26.18;27.48;96550.75;4908477;29;20034;-30
2022/04/03 00:52:20;;;;;;;13.13;11.23;;;;;;;26.18;27.48;96550.75;4905520;29;20042;-28
2022/04/03 00:54:47;;;;;;;15.40;11.68;;;;;;;26.18;27.25;96561.25;4908915;29;20035;-29
2022/04/03 00:57:12;;;;;;;14.15;12.25;;;;;;;26.18;27.25;96561.25;4908509;29;20032;-27
2022/04/03 00:59:37;;;;;;;13.73;11.07;;;;;;;26.18;27.25;96561.25;4921190;28;20546;-29
2022/04/03 01:02:03;;;;;;;14.02;10.43;;;;;;;26.18;27.25;96561.25;4905213;29;20545;-28
2022/04/03 01:04:28;;;;;;;15.48;11.15;;;;;;;26.18;27.25;96561.25;4903741;29;20082;-29
2022/04/03 01:06:54;;;;;;;14.23;10.73;;;;;;;26.18;27.25;96561.25;4901450;28;20043;-31
2022/04/03 01:09:20;;;;;;;13.48;10.55;;;;;;;26.18;27.25;96561.25;4908224;28;20046;-29
2022/04/03 01:11:45;;;;;;;14.13;10.82;;;;;;;26.18;27.25;96561.25;4905015;29;20035;-27
2022/04/03 01:14:11;;;;;;;14.18;10.70;;;;;;;26.16;27.08;96557.03;4906969;28;20043;-29
2022/04/03 01:16:36;;;;;;;13.82;10.85;;;;;;;26.16;27.08;96557.03;4905644;28;20024;-29
2022/04/03 01:19:03;;;;;;;13.57;10.70;;;;;;;26.16;27.08;96557.03;4905878;28;20028;-27
2022/04/03 01:21:28;;;;;;;12.23;10.13;;;;;;;26.16;27.08;96557.03;4906308;29;20035;-28
2022/04/03 01:23:55;;;;;;;11.80;9.90;;;;;;;26.16;27.08;96557.03;4886416;28;20128;-27
2022/04/03 01:26:22;;;;;;;12.85;10.38;;;;;;;26.16;27.08;96557.03;4886547;29;20027;-31
2022/04/03 01:28:47;;;;;;;11.27;9.93;;;;;;;26.13;27.40;96559.84;4888497;29;20487;-29
2022/04/03 01:31:13;;;;;;;12.75;9.80;;;;;;;26.13;27.74;96563.31;4888991;28;20046;-26
2022/04/03 01:33:38;;;;;;;12.18;9.88;;;;;;;26.13;27.65;96567.72;4892775;29;20020;-28
2022/04/03 01:36:04;;;;;;;13.18;10.05;;;;;;;26.12;27.66;96568.66;4890022;29;20032;-29
2022/04/03 01:38:29;;;;;;;10.98;9.30;;;;;;;26.12;27.66;96568.66;4902281;28;20058;-32
2022/04/03 01:40:55;;;;;;;11.88;9.50;;;;;;;26.12;27.08;96576.53;4900995;29;20024;-30
2022/04/03 01:43:20;;;;;;;12.63;9.27;;;;;;;26.10;27.13;96559.06;4908055;29;20079;-28
2022/04/03 01:45:45;;;;;;;11.82;9.30;;;;;;;26.12;27.12;96571.28;4910123;28;20034;-28
2022/04/03 01:48:11;;;;;;;11.43;9.13;;;;;;;26.10;27.29;96564.31;4913543;29;20034;-28
2022/04/03 01:50:36;;;;;;;10.38;8.90;;;;;;;26.10;27.27;96564.31;4910863;29;20028;-30
2022/04/03 01:53:02;;;;;;;12.20;9.18;;;;;;;26.10;26.94;96559.06;4912432;29;20058;-28
2022/04/03 01:55:27;;;;;;;11.13;9.38;;;;;;;26.10;26.94;96559.06;4912896;29;20028;-31
2022/04/03 01:57:53;;;;;;;10.27;8.90;;;;;;;26.09;27.20;96570.50;4912543;28;20040;-28
2022/04/03 02:00:19;;;;;;;10.45;8.50;;;;;;;26.10;27.36;96564.31;4912050;29;20032;-29
2022/04/03 02:02:45;;;;;;;10.93;8.15;;;;;;;26.09;27.10;96564.44;4909653;29;20032;-30
2022/04/03 02:05:10;;;;;;;9.70;7.88;;;;;;;26.08;27.60;96560.94;4911379;29;20028;-28
2022/04/03 02:07:35;;;;;;;9.90;7.97;;;;;;;26.08;27.60;96560.94;4924585;28;20058;-29
2022/04/03 02:10:04;;;;;;;12.07;8.25;;;;;;;26.08;27.23;96566.19;4914097;28;20055;-27
2022/04/03 02:12:30;;;;;;;10.05;7.75;;;;;;;26.08;27.23;96566.19;4909575;29;20039;-28
2022/04/03 02:14:55;;;;;;;9.55;8.35;;;;;;;26.08;27.56;96575.84;4901422;29;20032;-28
2022/04/03 02:17:21;;;;;;;10.75;7.60;;;;;;;26.07;27.66;96580.28;4905240;29;20402;-28
2022/04/03 02:19:46;;;;;;;10.30;7.90;;;;;;;26.06;27.60;96578.59;4906821;29;20034;-27
2022/04/03 02:22:11;;;;;;;9.77;8.00;;;;;;;26.07;27.38;96582.91;4903629;29;20040;-28
2022/04/03 02:24:37;;;;;;;11.25;7.97;;;;;;;26.06;27.08;96578.59;4904156;29;20035;-28
2022/04/03 02:27:03;;;;;;;9.77;7.43;;;;;;;26.05;27.22;96576.88;4901034;29;20032;-29
2022/04/03 02:29:28;;;;;;;9.13;7.25;;;;;;;26.05;27.22;96576.88;4904092;29;20628;-28
2022/04/03 02:31:54;;;;;;;12.48;8.48;;;;;;;26.05;27.58;96576.88;4904359;29;20095;-28
2022/04/03 02:34:19;;;;;;;8.65;7.75;;;;;;;26.05;27.65;96576.88;4903687;29;20905;-28
2022/04/03 02:36:45;;;;;;;9.18;7.38;;;;;;;26.03;27.10;96576.13;4897651;29;20036;-29
2022/04/03 02:39:12;;;;;;;10.38;7.70;;;;;;;26.04;27.22;96580.44;4873332;28;20165;-28
2022/04/03 02:41:38;;;;;;;9.98;7.28;;;;;;;26.05;27.65;96578.66;4869464;29;20570;-31
2022/04/03 02:44:03;;;;;;;7.93;6.80;;;;;;;26.04;27.06;96580.44;4860865;28;20040;-29
2022/04/03 02:46:29;;;;;;;8.68;6.82;;;;;;;26.04;27.04;96590.94;4873543;29;20070;-32
2022/04/03 02:48:55;;;;;;;8.80;6.80;;;;;;;26.04;27.04;96590.94;4874092;28;20138;-29
2022/04/03 02:51:20;;;;;;;8.90;6.78;;;;;;;26.04;27.54;96584.81;4871244;28;20028;-28
2022/04/03 02:53:45;;;;;;;9.20;6.63;;;;;;;26.03;27.32;96583.16;4874774;29;20047;-29
2022/04/03 02:56:11;;;;;;;8.35;6.78;;;;;;;26.03;27.32;96583.16;4878597;28;20032;-30
2022/04/03 02:58:36;;;;;;;8.57;6.95;;;;;;;26.03;27.51;96591.03;4875991;28;21263;-30
2022/04/03 03:01:02;;;;;;;8.00;6.68;;;;;;;26.01;27.04;96591.09;4878522;28;20047;-26
2022/04/03 03:03:27;;;;;;;9.25;6.78;;;;;;;26.01;27.69;96591.09;4878231;28;20075;-29
2022/04/03 03:05:53;;;;;;;7.03;6.32;;;;;;;26.01;27.21;96585.84;4879078;29;20040;-29
2022/04/03 03:08:18;;;;;;;7.80;6.10;;;;;;;26.02;26.97;96595.44;4870999;29;20035;-32
2022/04/03 03:10:44;;;;;;;6.60;5.88;;;;;;;26.02;27.22;96586.72;4871802;28;20054;-26
2022/04/03 03:13:09;;;;;;;8.93;6.63;;;;;;;26.01;27.29;96580.59;4872202;29;20876;-30
2022/04/03 03:15:34;;;;;;;7.78;5.90;;;;;;;26.00;26.96;96584.16;4870616;28;22520;-29
2022/04/03 03:18:00;;;;;;;7.63;6.22;;;;;;;26.00;26.94;96583.34;4872018;29;20175;-27
2022/04/03 03:20:25;;;;;;;6.85;5.90;;;;;;;26.00;27.19;96583.34;4873844;29;20036;-28
2022/04/03 03:22:51;;;;;;;8.15;6.25;;;;;;;26.00;27.27;96583.34;4869834;28;20550;-27
2022/04/03 03:25:16;;;;;;;10.07;6.55;;;;;;;26.00;27.29;96584.16;4872853;28;20095;-28
2022/04/03 03:27:42;;;;;;;8.13;6.15;;;;;;;25.98;27.16;96585.19;4871260;28;20040;-27
2022/04/03 03:30:08;;;;;;;6.53;5.63;;;;;;;25.98;27.16;96585.19;4870546;29;22231;-28
2022/04/03 03:32:33;;;;;;;8.15;6.28;;;;;;;25.98;27.41;96586.06;4869849;28;20862;-28
2022/04/03 03:34:59;;;;;;;7.68;5.45;;;;;;;25.98;27.32;96588.69;4870885;29;20043;-29
2022/04/03 03:37:24;;;;;;;7.82;5.75;;;;;;;25.98;27.32;96588.69;4892187;29;20035;-28
2022/04/03 03:39:50;;;;;;;6.40;5.22;;;;;;;25.96;27.28;96591.38;4937380;28;20442;-27
2022/04/03 03:42:15;;;;;;;7.05;5.50;;;;;;;25.97;27.63;96589.59;4906306;29;20075;-28
2022/04/03 03:44:41;;;;;;;7.40;5.70;;;;;;;25.96;27.48;96590.53;4908268;29;20649;-29
2022/04/03 03:47:07;;;;;;;6.68;5.20;;;;;;;25.95;27.64;96591.47;4907478;29;20035;-26
2022/04/03 03:49:33;;;;;;;5.93;5.05;;;;;;;25.94;26.95;96590.59;4908377;29;20036;-30
2022/04/03 03:51:59;;;;;;;6.55;5.28;;;;;;;25.93;27.39;96593.34;4906646;29;20039;-28
2022/04/03 03:54:25;;;;;;;6.13;5.25;;;;;;;25.93;26.89;96599.44;4908606;28;20047;-29
2022/04/03 03:56:50;;;;;;;6.25;5.40;;;;;;;25.95;26.90;96599.34;4906195;28;20035;-27
2022/04/03 03:59:16;;;;;;;6.10;5.15;;;;;;;25.93;27.47;96602.06;4906299;29;20036;-28
2022/04/03 04:01:42;;;;;;;6.43;4.97;;;;;;;25.93;27.47;96602.06;4904710;29;20023;-30
2022/04/03 04:04:07;;;;;;;6.60;4.93;;;;;;;25.94;27.42;96600.28;4910222;29;20035;-28
2022/04/03 04:06:32;;;;;;;6.10;4.72;;;;;;;25.93;27.56;96604.69;4906161;29;20039;-28
2022/04/03 04:08:58;;;;;;;6.47;4.78;;;;;;;25.92;27.01;96603.00;4904753;28;20048;-27
2022/04/03 04:11:23;;;;;;;6.53;4.78;;;;;;;25.92;27.04;96610.88;4904682;29;20743;-24
2022/04/03 04:13:49;;;;;;;5.63;4.55;;;;;;;25.92;27.01;96615.25;4905648;28;20043;-26
2022/04/03 04:16:14;;;;;;;7.10;4.55;;;;;;;25.92;27.01;96615.25;4907518;28;20650;-28
2022/04/03 04:18:40;;;;;;;6.50;5.28;;;;;;;25.90;27.42;96610.09;4910281;28;20052;-29
2022/04/03 04:21:05;;;;;;;5.97;5.00;;;;;;;25.90;27.55;96617.13;4907386;29;20043;-27
2022/04/03 04:23:31;;;;;;;6.10;5.00;;;;;;;25.90;27.55;96617.13;4907719;29;20475;-27
2022/04/03 04:25:56;;;;;;;6.78;4.93;;;;;;;25.90;26.98;96619.75;4899890;29;20406;-26
2022/04/03 04:28:22;;;;;;;5.60;4.53;;;;;;;25.90;26.98;96619.75;4907290;29;20032;-29
2022/04/03 04:30:47;;;;;;;4.93;4.43;;;;;;;25.89;26.86;96618.91;4905904;29;20036;-27
2022/04/03 04:33:12;;;;;;;5.28;4.32;;;;;;;25.90;27.41;96622.38;4920485;28;20087;-28
2022/04/03 04:35:38;;;;;;;6.25;4.25;;;;;;;25.90;27.41;96622.38;4904865;29;21837;-28
2022/04/03 04:38:03;;;;;;;4.78;4.20;;;;;;;25.88;27.14;96624.25;4889624;29;20116;-27
2022/04/03 04:40:29;;;;;;;5.65;4.38;;;;;;;25.88;27.53;96624.25;4902109;29;20589;-29
2022/04/03 04:42:55;;;;;;;5.07;4.18;;;;;;;25.88;26.98;96627.72;4937943;28;20593;-28
2022/04/03 04:45:21;;;;;;;8.73;4.55;;;;;;;25.88;26.98;96627.72;4908004;29;20035;-30
2022/04/03 04:47:48;;;;;;;5.95;4.05;;;;;;;25.88;27.10;96632.13;4906088;29;20587;-30
2022/04/03 04:50:18;;;;;;;5.90;4.57;;;;;;;25.88;27.10;96632.13;4927177;28;20023;-27
2022/04/03 04:52:43;;;;;;;6.68;4.57;;;;;;;25.88;27.10;96632.13;4908060;29;20028;-26
2022/04/03 04:55:09;;;;;;;4.95;4.07;;;;;;;25.88;27.10;96632.13;4904750;29;20104;-27
2022/04/03 04:57:35;;;;;;;4.47;3.75;;;;;;;25.88;27.10;96632.13;4908137;28;20537;-27
2022/04/03 05:00:01;;;;;;;4.63;4.00;;;;;;;25.86;27.54;96639.25;4911529;28;20028;-29
2022/04/03 05:02:26;;;;;;;4.55;3.75;;;;;;;25.84;27.23;96647.19;4905565;29;20511;-27
2022/04/03 05:04:52;;;;;;;4.55;3.70;;;;;;;25.85;27.15;96642.81;4913521;29;20035;-29
2022/04/03 05:07:18;;;;;;;4.75;4.00;;;;;;;25.85;27.15;96642.81;4911575;29;20062;-27
2022/04/03 05:09:44;;;;;;;4.80;4.05;;;;;;;25.85;27.13;96643.63;4913724;29;20023;-27
2022/04/03 05:12:10;;;;;;;5.28;3.90;;;;;;;25.86;27.29;96641.88;4914434;28;20106;-28
2022/04/03 05:14:37;;;;;;;4.65;3.60;;;;;;;25.85;27.55;96648.06;4911965;29;20034;-28
2022/04/03 05:17:03;;;;;;;4.07;3.60;;;;;;;25.85;27.55;96648.06;4911740;29;20107;-29
2022/04/03 05:19:28;;;;;;;4.38;3.72;;;;;;;25.85;26.90;96655.94;4916516;29;20035;-29
2022/04/03 05:21:54;;;;;;;7.07;3.17;;;;;;;25.85;27.13;96663.81;4911747;29;20039;-28
2022/04/03 05:24:19;;;;;;;4.60;3.30;;;;;;;25.85;27.13;96663.81;4912187;29;20434;-30
2022/04/03 05:26:45;;;;;;;4.68;3.50;;;;;;;25.85;27.13;96663.81;4911771;29;20043;-31
2022/04/03 05:29:10;;;;;;;6.15;3.60;;;;;;;25.85;27.13;96663.81;4914434;29;20032;-29
2022/04/03 05:31:36;;;;;;;6.30;3.53;;;;;;;25.85;27.13;96663.81;4911616;29;20027;-28
2022/04/03 05:34:02;;;;;;;4.45;3.15;;;;;;;25.85;27.13;96663.81;4906398;29;20059;-28
2022/04/03 05:36:27;;;;;;;4.53;3.30;;;;;;;25.83;27.11;96666.53;4902419;29;20099;-28
2022/04/03 05:38:52;;;;;;;4.82;3.38;;;;;;;25.83;27.11;96666.53;4902606;29;20051;-29
2022/04/03 05:41:18;;;;;;;6.60;3.55;;;;;;;25.83;27.11;96666.53;4904779;29;20545;-29
2022/04/03 05:43:43;;;;;;;3.70;2.90;;;;;;;25.83;27.11;96666.53;4911882;29;20067;-30
2022/04/03 05:46:10;;;;;;;4.35;3.20;;;;;;;25.83;27.19;96680.47;4905338;28;20043;-28
2022/04/03 05:48:35;;;;;;;3.30;2.80;;;;;;;25.83;27.19;96680.47;4904841;29;20036;-27
2022/04/03 05:51:01;;;;;;;4.00;3.00;;;;;;;25.85;27.59;96684.81;4903681;29;20035;-31
2022/04/03 05:53:26;;;;;;;5.35;3.30;;;;;;;25.85;27.59;96684.81;4907389;29;20027;-27
2022/04/03 05:55:52;;;;;;;3.65;2.97;;;;;;;25.85;27.59;96684.81;4903795;29;20183;-28
2022/04/03 05:58:17;;;;;;;3.58;3.00;;;;;;;-100.71;27.59;96684.81;4905604;29;20043;-29
2022/04/03 06:00:42;;;;;;;4.03;3.17;;;;;;;25.85;27.59;96684.81;4902672;29;20442;-27
2022/04/03 06:03:08;;;;;;;4.95;2.90;;;;;;;25.85;27.59;96684.81;4900036;29;20747;-28
2022/04/03 06:05:34;;;;;;;4.10;3.08;;;;;;;25.87;26.94;96704.78;4935844;28;20035;-26
2022/04/03 06:08:00;;;;;;;4.90;2.83;;;;;;;25.89;27.00;96702.09;4906348;29;20077;-29
2022/04/03 06:10:26;;;;;;;3.90;3.00;;;;;;;25.89;27.00;96702.09;4902609;29;20055;-27
2022/04/03 06:12:56;;;;;;;3.30;2.95;;;;;;;25.89;27.00;96702.09;4903772;29;20079;-29
2022/04/03 06:15:23;;;;;;;3.53;2.67;;;;;;;25.87;27.15;96701.31;4903440;29;20059;-29
2022/04/03 06:17:50;;;;;;;4.85;3.00;;;;;;;25.91;27.07;96708.09;4905092;29;20040;-27
2022/04/03 06:20:17;;;;;;;3.65;2.72;;;;;;;25.91;27.07;96708.09;4937532;28;20054;-28
2022/04/03 06:22:42;;;;;;;3.65;2.88;;;;;;;25.90;26.95;96706.41;4903091;29;20051;-31
2022/04/03 06:25:08;;;;;;;7.07;2.80;;;;;;;25.90;26.95;96706.41;4902400;29;20174;-28
2022/04/03 06:27:34;;;;;;;3.95;2.90;;;;;;;25.91;27.46;96708.09;4905239;29;20164;-28
2022/04/03 06:29:59;;;;;;;4.65;3.00;;;;;;;25.91;27.46;96708.09;4908053;29;20038;-29
2022/04/03 06:32:24;;;;;;;16.55;4.65;;;;;;;25.91;27.46;96708.09;4906547;29;20055;-28
2022/04/03 06:34:50;;;;;;;16.35;4.95;;;;;;;25.91;27.01;96726.47;4898898;29;20024;-29
2022/04/03 06:37:15;;;;;;;11.05;4.55;;;;;;;25.92;27.41;96720.28;4904224;28;20967;-29
2022/04/03 06:39:41;;;;;;;14.57;5.38;;;;;;;25.92;27.43;96725.53;4902447;29;20069;-30
2022/04/03 06:42:07;;;;;;;12.55;4.60;;;;;;;25.92;27.43;96725.53;4902347;29;20055;-29
2022/04/03 06:44:33;;;;;;;15.48;5.43;;;;;;;25.92;27.43;96725.53;4917568;28;20038;-31
2022/04/03 06:46:59;;;;;;;20.77;5.18;;;;;;;25.92;27.43;96725.53;4903570;28;20048;-28
2022/04/03 06:49:24;;;;;;;17.25;4.82;;;;;;;25.92;27.43;96725.53;4919867;28;20054;-27
2022/04/03 06:51:49;;;;;;;12.55;4.90;;;;;;;25.92;27.43;96725.53;4925236;28;20035;-29
2022/04/03 06:54:15;;;;;;;9.35;4.43;;;;;;;25.92;27.52;96739.50;4923684;28;20031;-27
2022/04/03 06:56:40;;;;;;;9.25;4.45;;;;;;;25.93;26.90;96745.63;4926933;28;20787;-31
2022/04/03 06:59:06;;;;;;;12.57;4.30;;;;;;;25.93;26.90;96745.63;4926453;28;20046;-29
2022/04/03 07:01:31;;;;;;;12.20;4.47;;;;;;;25.93;26.90;96745.63;4928753;28;20030;-29
2022/04/03 07:03:56;;;;;;;12.20;4.72;;;;;;;25.93;26.90;96745.63;4922867;28;20035;-29
2022/04/03 07:06:22;;;;;;;8.73;4.15;;;;;;;25.94;27.50;96747.31;4930506;28;20042;-29
2022/04/03 07:08:48;;;;;;;8.57;4.35;;;;;;;25.94;27.50;96747.31;4919134;28;20046;-28
2022/04/03 07:11:15;;;;;;;10.05;4.05;;;;;;;25.94;27.50;96747.31;4921809;28;20173;-28
2022/04/03 07:13:40;;;;;;;11.68;4.07;;;;;;;25.94;27.50;96747.31;4924246;28;20035;-28
2022/04/03 07:16:06;;;;;;;9.73;4.05;;;;;;;25.94;27.50;96747.31;4927663;28;20038;-31
2022/04/03 07:18:31;;;;;;;9.50;3.63;;;;;;;25.96;27.10;96756.78;4920934;28;20629;-31
2022/04/03 07:20:57;;;;;;;7.93;3.97;;;;;;;25.96;27.10;96756.78;4923896;28;20039;-31
2022/04/03 07:23:24;;;;;;;7.90;3.60;;;;;;;25.96;27.10;96756.78;4921819;28;20048;-27
2022/04/03 07:25:49;;;;;;;5.22;3.05;;;;;;;25.97;26.63;96762.88;4921915;28;20166;-30
2022/04/03 07:28:15;;;;;;;5.88;3.20;;;;;;;25.96;27.37;96774.31;4935919;28;20031;-31
2022/04/03 07:30:40;;;;;;;9.43;3.55;;;;;;;25.96;27.24;96762.03;4914190;28;20029;-27
2022/04/03 07:33:05;;;;;;;14.07;3.38;;;;;;;25.97;27.53;96762.88;4915513;28;20047;-29
2022/04/03 07:35:31;;;;;;;7.95;3.70;;;;;;;25.97;27.11;96768.13;4920059;28;20031;-31
2022/04/03 07:37:56;;;;;;;5.80;3.15;;;;;;;25.98;27.14;96774.25;4922368;28;20028;-32
2022/04/03 07:40:22;;;;;;;6.40;3.42;;;;;;;25.98;27.14;96774.25;4922088;28;20094;-28
2022/04/03 07:42:50;;;;;;;8.18;3.17;;;;;;;25.97;27.41;96778.63;4922026;28;20059;-29
2022/04/03 07:45:15;;;;;;;6.88;3.10;;;;;;;25.97;27.41;96778.63;4923816;28;20166;-29
2022/04/03 07:47:59;;;;;;;9.95;3.70;;;;;;;25.97;27.41;96778.63;4919680;28;20027;-29
2022/04/03 07:50:25;;;;;;;5.80;3.15;;;;;;;25.97;27.41;96778.63;4928663;28;20031;-28
2022/04/03 07:52:50;;;;;;;8.75;3.58;;;;;;;25.97;27.41;96778.63;4921375;28;20409;-28
2022/04/03 07:55:17;;;;;;;5.82;3.05;;;;;;;25.97;27.41;96778.63;4921351;28;20035;-29
2022/04/03 07:57:42;;;;;;;6.47;3.15;;;;;;;25.97;27.41;96778.63;4919093;28;20040;-31
2022/04/03 08:00:10;;;;;;;6.15;2.97;;;;;;;25.97;27.41;96778.63;4935795;28;20035;-30
2022/04/03 08:02:36;;;;;;;7.90;3.10;;;;;;;25.97;27.41;96778.63;4918167;28;20039;-28
2022/04/03 08:05:02;;;;;;;6.47;3.00;;;;;;;25.97;27.41;96778.63;4918712;28;20027;-28
2022/04/03 08:07:37;;;;;;;5.20;2.47;;;;;;;25.97;27.41;96778.63;4922623;28;20038;-32
2022/04/03 08:10:08;;;;;;;4.95;3.00;;;;;;;25.97;27.41;96778.63;4919203;28;20038;-29
2022/04/03 08:12:37;;;;;;;3.10;2.28;;;;;;;25.97;27.41;96778.63;4923195;28;20031;-30
2022/04/03 08:15:04;;;;;;;5.82;2.80;;;;;;;25.97;27.41;96778.63;4920259;28;20037;-31
2022/04/03 08:17:29;;;;;;;6.10;3.00;;;;;;;-148.56;27.41;96778.63;4922764;28;20039;-31
2022/04/03 08:19:55;;;;;;;16.55;2.90;;;;;;;25.97;27.41;96778.63;4921238;28;20069;-29
2022/04/03 08:22:20;;;;;;;7.10;2.72;;;;;;;25.97;27.41;96778.63;4924059;28;20027;-29
2022/04/03 08:24:46;;;;;;;8.57;3.58;;;;;;;25.97;27.41;96778.63;4928239;28;20031;-29
2022/04/03 08:27:12;;;;;;;8.48;3.60;;;;;;;25.97;27.41;96778.63;4926713;28;20065;-30
2022/04/03 08:29:38;;;;;;;9.15;3.20;;;;;;;25.97;27.41;96778.63;4918669;28;20077;-29
2022/04/03 08:32:03;;;;;;;7.40;2.95;;;;;;;25.97;27.41;96778.63;4924972;28;20541;-29
2022/04/03 08:34:29;;;;;;;7.70;2.65;;;;;;;25.97;27.41;96778.63;4925472;28;20043;-29
2022/04/03 08:36:54;;;;;;;7.00;2.80;;;;;;;;;;4926488;28;20036;-29
2022/04/03 08:39:19;;;;;;;5.00;2.47;;;;;;;-148.56;27.41;96778.63;4926352;28;20780;-29
2022/04/03 08:41:45;;;;;;;5.13;2.70;;;;;;;25.97;27.41;96778.63;4920780;28;20046;-28
2022/04/03 08:44:10;;;;;;;4.28;2.42;;;;;;;25.97;27.41;96778.63;4922615;28;20031;-29
2022/04/03 08:46:36;;;;;;;5.32;2.72;;;;;;;25.97;27.41;96778.63;4920026;28;20035;-31
2022/04/03 08:49:01;;;;;;;5.63;2.33;;;;;;;25.97;27.41;96778.63;4935863;28;20039;-27
2022/04/03 08:51:30;;;;;;;5.47;2.10;;;;;;;25.42;25.04;96843.56;4919982;28;20694;-29
2022/04/03 08:53:55;;;;;;;5.97;2.30;;;;;;;25.42;25.04;96843.56;4924152;28;20090;-29
2022/04/03 08:56:21;;;;;;;5.65;2.00;;;;;;;25.42;25.04;96843.56;4926757;28;20035;-29
2022/04/03 08:58:46;;;;;;;9.82;2.47;;;;;;;25.42;25.04;96843.56;4926162;28;20046;-29
2022/04/03 09:01:11;;;;;;;6.82;2.50;;;;;;;-148.56;25.04;96843.56;4921324;28;20042;-30
2022/04/03 09:03:37;;;;;;;9.48;2.60;;;;;;;-148.56;100.00;83112.81;4923699;28;20031;-29
2022/04/03 09:06:15;;;;;;;24.92;4.85;;;;;;;25.42;25.04;96843.56;4922101;28;20897;-30
2022/04/03 09:08:41;;;;;;;30.70;5.32;;;;;;;25.62;25.87;96849.63;4922670;28;20043;-28
2022/04/03 09:11:07;;;;;;;18.45;4.43;;;;;;;25.62;25.87;96849.63;4933988;28;20031;-29
2022/04/03 09:13:33;;;;;;;14.27;3.90;;;;;;;25.62;25.87;91022.38;4935610;28;20441;-32
2022/04/03 09:15:58;;;;;;;14.23;3.53;;;;;;;25.69;25.60;96848.34;4934356;28;20441;-28
2022/04/03 09:18:40;;;;;;;17.52;3.63;;;;;;;25.70;25.57;96847.41;4931433;28;20042;-28
2022/04/03 09:21:14;;;;;;;19.40;3.95;;;;;;;25.70;25.57;96847.41;4932602;28;20127;-30
2022/04/03 09:23:58;;;;;;;13.70;3.65;;;;;;;25.70;25.57;96847.41;4934940;28;20167;-30
2022/04/03 09:26:24;;;;;;;16.70;3.70;;;;;;;-148.56;25.57;96847.41;4936107;28;20123;-31
2022/04/03 09:28:49;;;;;;;8.70;3.10;;;;;;;25.70;25.57;96847.41;4931181;28;20071;-30
2022/04/03 09:31:30;;;;;;;9.93;3.35;;;;;;;25.70;25.57;96847.41;4932138;28;20117;-30
2022/04/03 09:34:00;;;;;;;12.00;3.17;;;;;;;25.70;25.57;96847.41;4932271;28;20035;-28
2022/04/03 09:36:26;;;;;;;8.82;3.30;;;;;;;25.70;25.57;96847.41;4933830;28;20086;-30
2022/04/03 09:38:51;;;;;;;11.82;3.33;;;;;;;25.87;26.04;96848.31;4935571;29;20405;-30
2022/04/03 09:41:17;;;;;;;10.40;3.20;;;;;;;25.93;26.29;96853.28;4932561;28;20050;-31
2022/04/03 09:43:42;;;;;;;7.80;2.97;;;;;;;25.93;26.29;96853.28;4934770;28;20039;-28
2022/04/03 09:46:12;;;;;;;7.53;3.10;;;;;;;25.93;26.29;96853.28;4933824;28;20054;-37
2022/04/03 09:48:41;;;;;;;6.72;2.80;;;;;;;25.93;26.29;96853.28;4935618;28;20036;-29
2022/04/03 09:51:19;;;;;;;8.20;2.92;;;;;;;25.93;26.29;96853.28;4932757;28;20050;-29
2022/04/03 09:53:56;;;;;;;7.03;3.10;;;;;;;25.99;26.19;96855.56;4935045;28;20038;-26
2022/04/03 09:56:21;;;;;;;8.70;2.78;;;;;;;25.99;26.19;96855.56;4932792;28;20031;-28
2022/04/03 09:58:50;;;;;;;10.00;2.67;;;;;;;26.03;26.25;96857.09;4933284;28;20039;-28
2022/04/03 10:01:44;;;;;;;5.93;2.60;;;;;;;-148.56;26.25;96857.09;4934200;28;20071;-27
2022/04/03 10:04:15;;;;;;;6.22;2.80;;;;;;;-148.56;26.25;61375.16;4932767;28;20583;-28
2022/04/03 10:06:43;;;;;;;7.10;2.42;;;;;;;-148.56;100.00;61375.16;4933961;28;20054;-30
2022/04/03 10:09:11;;;;;;;6.63;2.67;;;;;;;-148.56;25.21;61375.16;4931482;28;20081;-30
2022/04/03 10:11:40;;;;;;;5.88;2.65;;;;;;;26.03;26.25;96857.09;4931657;28;20055;-28
2022/04/03 10:14:06;;;;;;;8.05;2.50;;;;;;;-148.56;26.25;71113.59;4932611;28;20063;-28
2022/04/03 10:16:31;;;;;;;7.50;2.63;;;;;;;26.03;26.25;96857.09;4948644;28;20090;-29
2022/04/03 10:18:57;;;;;;;4.75;2.22;;;;;;;-148.56;26.25;96857.09;4932414;28;20715;-28
2022/04/03 10:21:37;;;;;;;6.50;2.45;;;;;;;26.03;26.25;96857.09;4945254;28;20038;-28
2022/04/03 10:24:16;;;;;;;8.15;2.30;;;;;;;26.03;26.25;96857.09;4927066;28;20920;-28
2022/04/03 10:26:45;;;;;;;5.95;2.40;;;;;;;26.03;26.25;96857.09;4933600;28;20026;-30
2022/04/03 10:29:10;;;;;;;3.85;2.10;;;;;;;26.03;26.25;96857.09;4945448;28;20049;-28
2022/04/03 10:31:37;;;;;;;4.43;2.20;;;;;;;26.03;26.25;96857.09;4931630;28;20031;-28
2022/04/03 10:34:03;;;;;;;7.10;2.45;;;;;;;26.03;26.25;96857.09;4929798;28;20027;-30
2022/04/03 10:36:33;;;;;;;5.10;2.28;;;;;;;26.03;26.25;96857.09;4931546;28;20031;-29
2022/04/03 10:38:59;;;;;;;4.72;2.17;;;;;;;;;;4929818;28;20038;-27
2022/04/03 10:41:34;;;;;;;4.63;2.28;;;;;;;-148.56;26.25;61375.16;4929447;28;20043;-32
2022/04/03 10:44:22;;;;;;;5.15;2.05;;;;;;;-148.56;26.25;71113.25;4931709;28;20027;-29
2022/04/03 10:47:05;;;;;;;5.18;2.10;;;;;;;26.03;26.25;96857.09;4930563;28;20846;-30
2022/04/03 10:49:34;;;;;;;3.10;1.83;;;;;;;26.03;26.25;96857.09;4930243;28;20031;-28
2022/04/03 10:52:07;;;;;;;6.22;2.10;;;;;;;26.03;26.25;96857.09;4933785;28;20076;-29
2022/04/03 10:54:42;;;;;;;4.82;2.15;;;;;;;26.03;26.25;96857.09;4930444;28;20079;-30
2022/04/03 10:57:35;;;;;;;4.45;2.10;;;;;;;26.03;26.25;96857.09;4930857;28;20035;-27
2022/04/03 11:00:11;;;;;;;4.53;2.05;;;;;;;26.27;26.98;96856.72;4929248;28;20028;-29
2022/04/03 11:02:36;;;;;;;5.45;2.10;;;;;;;26.27;26.98;96856.72;4933238;28;20043;-29
2022/04/03 11:05:26;;;;;;;4.32;1.88;;;;;;;26.27;26.98;96856.72;4932586;28;20031;-28
2022/04/03 11:07:54;;;;;;;4.47;2.08;;;;;;;-148.56;26.98;96856.72;4933537;28;20043;-29
2022/04/03 11:10:52;;;;;;;4.97;2.10;;;;;;;26.27;26.98;96856.72;4930207;28;20042;-29
2022/04/03 11:13:38;;;;;;;2.97;1.42;;;;;;;26.27;26.98;96856.72;4928679;28;20383;-28
2022/04/03 11:16:04;;;;;;;3.67;1.80;;;;;;;26.27;26.98;96856.72;4931922;28;20075;-28
2022/04/03 11:18:33;;;;;;;3.22;1.77;;;;;;;26.27;26.98;96856.72;4931935;28;20077;-30
2022/04/03 11:21:21;;;;;;;4.65;1.88;;;;;;;26.27;26.98;96856.72;4946375;28;20077;-30
2022/04/03 11:23:51;;;;;;;5.53;1.70;;;;;;;26.27;26.98;96856.72;4931586;28;20121;-28
2022/04/03 11:26:17;;;;;;;4.75;1.98;;;;;;;26.27;26.98;96856.72;4933198;28;20042;-28
2022/04/03 11:28:43;;;;;;;2.85;1.80;;;;;;;26.27;26.98;96856.72;4931662;28;20126;-30